sensor_id;sensor_type;location;lat;lon;timestamp;P1;durP1;ratioP1;P2;durP2;ratioP2
19830;SDS011;10076;52.008;4.708;2023-11-19T00:00:48;34.90;;;31.30;;
19830;SDS011;10076;52.008;4.708;2023-11-19T00:03:13;36.47;;;32.55;;
19830;SDS011;10076;52.008;4.708;2023-11-19T00:05:39;37.17;;;33.35;;
19830;SDS011;10076;52.008;4.708;2023-11-19T00:08:04;35.45;;;31.85;;
19830;SDS011;10076;52.008;4.708;2023-11-19T00:10:31;38.78;;;33.15;;
19830;SDS011;10076;52.008;4.708;2023-11-19T00:12:56;35.63;;;31.98;;
19830;SDS011;10076;52.008;4.708;2023-11-19T00:15:22;40.05;;;32.17;;
19830;SDS011;10076;52.008;4.708;2023-11-19T00:17:49;36.53;;;31.08;;
19830;SDS011;10076;52.008;4.708;2023-11-19T00:20:15;36.38;;;32.78;;
19830;SDS011;10076;52.008;4.708;2023-11-19T00:22:42;37.50;;;33.55;;
19830;SDS011;10076;52.008;4.708;2023-11-19T00:25:08;34.60;;;30.92;;
19830;SDS011;10076;52.008;4.708;2023-11-19T00:27:34;34.58;;;29.83;;
19830;SDS011;10076;52.008;4.708;2023-11-19T00:29:59;42.08;;;31.25;;
19830;SDS011;10076;52.008;4.708;2023-11-19T00:32:24;35.15;;;31.38;;
19830;SDS011;10076;52.008;4.708;2023-11-19T00:34:50;36.85;;;32.83;;
19830;SDS011;10076;52.008;4.708;2023-11-19T00:37:16;37.85;;;34.25;;
19830;SDS011;10076;52.008;4.708;2023-11-19T00:39:41;36.40;;;32.60;;
19830;SDS011;10076;52.008;4.708;2023-11-19T00:42:08;36.20;;;32.70;;
19830;SDS011;10076;52.008;4.708;2023-11-19T00:44:35;42.65;;;31.88;;
19830;SDS011;10076;52.008;4.708;2023-11-19T00:47:00;34.65;;;30.98;;
19830;SDS011;10076;52.008;4.708;2023-11-19T00:49:25;40.08;;;32.15;;
19830;SDS011;10076;52.008;4.708;2023-11-19T00:51:51;36.28;;;32.42;;
19830;SDS011;10076;52.008;4.708;2023-11-19T00:54:16;36.83;;;33.28;;
19830;SDS011;10076;52.008;4.708;2023-11-19T00:56:42;37.63;;;32.70;;
19830;SDS011;10076;52.008;4.708;2023-11-19T00:59:07;36.53;;;32.90;;
19830;SDS011;10076;52.008;4.708;2023-11-19T01:01:32;36.63;;;32.70;;
19830;SDS011;10076;52.008;4.708;2023-11-19T01:03:58;39.72;;;35.63;;
19830;SDS011;10076;52.008;4.708;2023-11-19T01:06:27;35.75;;;32.15;;
19830;SDS011;10076;52.008;4.708;2023-11-19T01:08:54;37.30;;;33.33;;
19830;SDS011;10076;52.008;4.708;2023-11-19T01:11:20;38.33;;;34.28;;
19830;SDS011;10076;52.008;4.708;2023-11-19T01:13:46;38.33;;;34.72;;
19830;SDS011;10076;52.008;4.708;2023-11-19T01:16:11;37.85;;;34.35;;
19830;SDS011;10076;52.008;4.708;2023-11-19T01:18:37;40.83;;;37.15;;
19830;SDS011;10076;52.008;4.708;2023-11-19T01:21:03;38.35;;;34.65;;
19830;SDS011;10076;52.008;4.708;2023-11-19T01:23:29;38.55;;;34.45;;
19830;SDS011;10076;52.008;4.708;2023-11-19T01:25:54;41.38;;;34.30;;
19830;SDS011;10076;52.008;4.708;2023-11-19T01:28:19;36.80;;;33.40;;
19830;SDS011;10076;52.008;4.708;2023-11-19T01:30:45;39.03;;;34.05;;
19830;SDS011;10076;52.008;4.708;2023-11-19T01:33:10;39.25;;;35.63;;
19830;SDS011;10076;52.008;4.708;2023-11-19T01:35:35;38.53;;;34.38;;
19830;SDS011;10076;52.008;4.708;2023-11-19T01:38:00;37.92;;;34.55;;
19830;SDS011;10076;52.008;4.708;2023-11-19T01:40:26;36.88;;;33.00;;
19830;SDS011;10076;52.008;4.708;2023-11-19T01:42:51;40.00;;;33.70;;
19830;SDS011;10076;52.008;4.708;2023-11-19T01:45:21;41.38;;;36.58;;
19830;SDS011;10076;52.008;4.708;2023-11-19T01:47:51;38.50;;;34.53;;
19830;SDS011;10076;52.008;4.708;2023-11-19T01:50:16;40.00;;;36.00;;
19830;SDS011;10076;52.008;4.708;2023-11-19T01:52:42;38.80;;;34.97;;
19830;SDS011;10076;52.008;4.708;2023-11-19T01:55:07;37.97;;;34.03;;
19830;SDS011;10076;52.008;4.708;2023-11-19T01:57:35;37.60;;;33.75;;
19830;SDS011;10076;52.008;4.708;2023-11-19T02:00:02;36.22;;;33.03;;
19830;SDS011;10076;52.008;4.708;2023-11-19T02:02:28;39.08;;;35.22;;
19830;SDS011;10076;52.008;4.708;2023-11-19T02:04:55;35.90;;;32.33;;
19830;SDS011;10076;52.008;4.708;2023-11-19T02:07:21;35.42;;;31.70;;
19830;SDS011;10076;52.008;4.708;2023-11-19T02:09:47;34.65;;;31.38;;
19830;SDS011;10076;52.008;4.708;2023-11-19T02:12:12;34.37;;;31.33;;
19830;SDS011;10076;52.008;4.708;2023-11-19T02:14:38;37.53;;;32.95;;
19830;SDS011;10076;52.008;4.708;2023-11-19T02:17:03;37.13;;;33.30;;
19830;SDS011;10076;52.008;4.708;2023-11-19T02:19:29;35.88;;;32.88;;
19830;SDS011;10076;52.008;4.708;2023-11-19T02:21:54;36.75;;;33.28;;
19830;SDS011;10076;52.008;4.708;2023-11-19T02:24:21;35.90;;;32.57;;
19830;SDS011;10076;52.008;4.708;2023-11-19T02:27:10;33.43;;;29.87;;
19830;SDS011;10076;52.008;4.708;2023-11-19T02:29:46;34.60;;;31.38;;
19830;SDS011;10076;52.008;4.708;2023-11-19T02:32:12;35.88;;;32.35;;
19830;SDS011;10076;52.008;4.708;2023-11-19T02:34:41;33.03;;;29.87;;
19830;SDS011;10076;52.008;4.708;2023-11-19T02:37:06;34.90;;;31.57;;
19830;SDS011;10076;52.008;4.708;2023-11-19T02:39:31;42.57;;;31.47;;
19830;SDS011;10076;52.008;4.708;2023-11-19T02:41:57;34.17;;;31.23;;
19830;SDS011;10076;52.008;4.708;2023-11-19T02:44:22;36.22;;;30.77;;
19830;SDS011;10076;52.008;4.708;2023-11-19T02:46:48;31.87;;;28.57;;
19830;SDS011;10076;52.008;4.708;2023-11-19T02:49:14;32.15;;;29.25;;
19830;SDS011;10076;52.008;4.708;2023-11-19T02:51:40;32.60;;;29.23;;
19830;SDS011;10076;52.008;4.708;2023-11-19T02:54:05;41.50;;;30.53;;
19830;SDS011;10076;52.008;4.708;2023-11-19T02:56:31;33.57;;;29.90;;
19830;SDS011;10076;52.008;4.708;2023-11-19T02:58:59;34.30;;;29.17;;
19830;SDS011;10076;52.008;4.708;2023-11-19T03:01:32;31.80;;;28.77;;
19830;SDS011;10076;52.008;4.708;2023-11-19T03:03:59;30.63;;;27.83;;
19830;SDS011;10076;52.008;4.708;2023-11-19T03:06:26;30.73;;;27.67;;
19830;SDS011;10076;52.008;4.708;2023-11-19T03:08:54;37.30;;;29.60;;
19830;SDS011;10076;52.008;4.708;2023-11-19T03:11:19;30.90;;;28.20;;
19830;SDS011;10076;52.008;4.708;2023-11-19T03:13:45;32.60;;;28.17;;
19830;SDS011;10076;52.008;4.708;2023-11-19T03:16:11;33.17;;;27.83;;
19830;SDS011;10076;52.008;4.708;2023-11-19T03:18:37;30.73;;;28.07;;
19830;SDS011;10076;52.008;4.708;2023-11-19T03:21:04;31.47;;;28.63;;
19830;SDS011;10076;52.008;4.708;2023-11-19T03:23:30;31.73;;;28.87;;
19830;SDS011;10076;52.008;4.708;2023-11-19T03:25:55;33.03;;;29.83;;
19830;SDS011;10076;52.008;4.708;2023-11-19T03:28:22;30.47;;;27.97;;
19830;SDS011;10076;52.008;4.708;2023-11-19T03:30:47;29.20;;;26.50;;
19830;SDS011;10076;52.008;4.708;2023-11-19T03:33:12;30.30;;;27.67;;
19830;SDS011;10076;52.008;4.708;2023-11-19T03:35:38;30.67;;;27.93;;
19830;SDS011;10076;52.008;4.708;2023-11-19T03:38:04;36.33;;;28.33;;
19830;SDS011;10076;52.008;4.708;2023-11-19T03:40:29;31.10;;;28.17;;
19830;SDS011;10076;52.008;4.708;2023-11-19T03:42:58;30.30;;;27.40;;
19830;SDS011;10076;52.008;4.708;2023-11-19T03:45:23;30.60;;;27.53;;
19830;SDS011;10076;52.008;4.708;2023-11-19T03:47:49;30.50;;;27.37;;
19830;SDS011;10076;52.008;4.708;2023-11-19T03:50:15;31.67;;;27.30;;
19830;SDS011;10076;52.008;4.708;2023-11-19T03:52:41;32.40;;;28.40;;
19830;SDS011;10076;52.008;4.708;2023-11-19T03:55:06;30.23;;;27.57;;
19830;SDS011;10076;52.008;4.708;2023-11-19T03:57:33;34.07;;;28.00;;
19830;SDS011;10076;52.008;4.708;2023-11-19T03:59:59;30.90;;;28.03;;
19830;SDS011;10076;52.008;4.708;2023-11-19T04:02:24;29.93;;;27.33;;
19830;SDS011;10076;52.008;4.708;2023-11-19T04:04:54;29.90;;;27.30;;
19830;SDS011;10076;52.008;4.708;2023-11-19T04:07:20;30.40;;;27.58;;
19830;SDS011;10076;52.008;4.708;2023-11-19T04:09:45;29.57;;;26.80;;
19830;SDS011;10076;52.008;4.708;2023-11-19T04:12:11;29.20;;;26.67;;
19830;SDS011;10076;52.008;4.708;2023-11-19T04:14:37;34.70;;;26.60;;
19830;SDS011;10076;52.008;4.708;2023-11-19T04:17:02;29.57;;;26.97;;
19830;SDS011;10076;52.008;4.708;2023-11-19T04:19:27;39.77;;;27.50;;
19830;SDS011;10076;52.008;4.708;2023-11-19T04:21:53;34.53;;;27.67;;
19830;SDS011;10076;52.008;4.708;2023-11-19T04:24:18;29.97;;;26.63;;
19830;SDS011;10076;52.008;4.708;2023-11-19T04:26:44;29.90;;;26.13;;
19830;SDS011;10076;52.008;4.708;2023-11-19T04:29:13;28.70;;;26.10;;
19830;SDS011;10076;52.008;4.708;2023-11-19T04:31:40;35.10;;;26.67;;
19830;SDS011;10076;52.008;4.708;2023-11-19T04:34:05;29.17;;;26.30;;
19830;SDS011;10076;52.008;4.708;2023-11-19T04:36:34;29.73;;;26.57;;
19830;SDS011;10076;52.008;4.708;2023-11-19T04:39:00;28.20;;;25.90;;
19830;SDS011;10076;52.008;4.708;2023-11-19T04:41:26;27.17;;;24.77;;
19830;SDS011;10076;52.008;4.708;2023-11-19T04:43:55;26.87;;;24.47;;
19830;SDS011;10076;52.008;4.708;2023-11-19T04:46:20;27.40;;;24.50;;
19830;SDS011;10076;52.008;4.708;2023-11-19T04:48:46;27.60;;;24.83;;
19830;SDS011;10076;52.008;4.708;2023-11-19T04:51:11;28.95;;;25.85;;
19830;SDS011;10076;52.008;4.708;2023-11-19T04:53:36;29.73;;;25.90;;
19830;SDS011;10076;52.008;4.708;2023-11-19T04:56:07;28.70;;;26.10;;
19830;SDS011;10076;52.008;4.708;2023-11-19T04:58:36;27.93;;;25.43;;
19830;SDS011;10076;52.008;4.708;2023-11-19T05:01:02;27.07;;;24.67;;
19830;SDS011;10076;52.008;4.708;2023-11-19T05:03:28;27.80;;;25.47;;
19830;SDS011;10076;52.008;4.708;2023-11-19T05:05:54;27.43;;;24.87;;
19830;SDS011;10076;52.008;4.708;2023-11-19T05:08:19;28.50;;;25.60;;
19830;SDS011;10076;52.008;4.708;2023-11-19T05:10:44;26.67;;;24.37;;
19830;SDS011;10076;52.008;4.708;2023-11-19T05:13:10;27.83;;;24.93;;
19830;SDS011;10076;52.008;4.708;2023-11-19T05:15:35;28.23;;;25.33;;
19830;SDS011;10076;52.008;4.708;2023-11-19T05:18:00;28.20;;;25.60;;
19830;SDS011;10076;52.008;4.708;2023-11-19T05:20:25;28.48;;;24.35;;
19830;SDS011;10076;52.008;4.708;2023-11-19T05:22:51;28.83;;;25.87;;
19830;SDS011;10076;52.008;4.708;2023-11-19T05:25:18;27.70;;;24.93;;
19830;SDS011;10076;52.008;4.708;2023-11-19T05:27:45;26.73;;;24.30;;
19830;SDS011;10076;52.008;4.708;2023-11-19T05:30:10;31.60;;;24.90;;
19830;SDS011;10076;52.008;4.708;2023-11-19T05:32:36;27.63;;;24.80;;
19830;SDS011;10076;52.008;4.708;2023-11-19T05:35:01;28.07;;;24.90;;
19830;SDS011;10076;52.008;4.708;2023-11-19T05:37:27;26.80;;;24.50;;
19830;SDS011;10076;52.008;4.708;2023-11-19T05:39:52;28.07;;;25.20;;
19830;SDS011;10076;52.008;4.708;2023-11-19T05:42:17;28.00;;;25.60;;
19830;SDS011;10076;52.008;4.708;2023-11-19T05:44:43;28.00;;;25.30;;
19830;SDS011;10076;52.008;4.708;2023-11-19T05:47:08;27.23;;;24.67;;
19830;SDS011;10076;52.008;4.708;2023-11-19T05:49:33;27.80;;;24.95;;
19830;SDS011;10076;52.008;4.708;2023-11-19T05:51:59;28.57;;;25.70;;
19830;SDS011;10076;52.008;4.708;2023-11-19T05:54:24;30.40;;;26.03;;
19830;SDS011;10076;52.008;4.708;2023-11-19T05:56:50;29.13;;;26.13;;
19830;SDS011;10076;52.008;4.708;2023-11-19T05:59:18;28.15;;;25.55;;
19830;SDS011;10076;52.008;4.708;2023-11-19T06:01:44;29.83;;;26.87;;
19830;SDS011;10076;52.008;4.708;2023-11-19T06:04:09;29.73;;;27.17;;
19830;SDS011;10076;52.008;4.708;2023-11-19T06:06:35;28.93;;;25.90;;
19830;SDS011;10076;52.008;4.708;2023-11-19T06:09:01;27.00;;;24.80;;
19830;SDS011;10076;52.008;4.708;2023-11-19T06:11:27;27.70;;;24.97;;
19830;SDS011;10076;52.008;4.708;2023-11-19T06:13:53;28.17;;;25.98;;
19830;SDS011;10076;52.008;4.708;2023-11-19T06:16:18;28.43;;;25.83;;
19830;SDS011;10076;52.008;4.708;2023-11-19T06:18:43;28.67;;;25.70;;
19830;SDS011;10076;52.008;4.708;2023-11-19T06:21:09;28.03;;;25.57;;
19830;SDS011;10076;52.008;4.708;2023-11-19T06:23:35;27.37;;;24.93;;
19830;SDS011;10076;52.008;4.708;2023-11-19T06:26:00;33.00;;;25.03;;
19830;SDS011;10076;52.008;4.708;2023-11-19T06:28:26;27.43;;;25.13;;
19830;SDS011;10076;52.008;4.708;2023-11-19T06:30:51;27.47;;;24.93;;
19830;SDS011;10076;52.008;4.708;2023-11-19T06:33:16;27.40;;;25.10;;
19830;SDS011;10076;52.008;4.708;2023-11-19T06:35:42;28.13;;;25.87;;
19830;SDS011;10076;52.008;4.708;2023-11-19T06:38:07;28.23;;;25.83;;
19830;SDS011;10076;52.008;4.708;2023-11-19T06:40:33;28.53;;;24.53;;
19830;SDS011;10076;52.008;4.708;2023-11-19T06:43:00;27.27;;;24.73;;
19830;SDS011;10076;52.008;4.708;2023-11-19T06:45:25;26.93;;;24.40;;
19830;SDS011;10076;52.008;4.708;2023-11-19T06:47:50;27.97;;;25.37;;
19830;SDS011;10076;52.008;4.708;2023-11-19T06:50:16;27.03;;;24.77;;
19830;SDS011;10076;52.008;4.708;2023-11-19T06:52:41;26.77;;;24.40;;
19830;SDS011;10076;52.008;4.708;2023-11-19T06:55:07;27.43;;;25.03;;
19830;SDS011;10076;52.008;4.708;2023-11-19T06:57:33;27.20;;;24.83;;
19830;SDS011;10076;52.008;4.708;2023-11-19T06:59:58;27.13;;;24.80;;
19830;SDS011;10076;52.008;4.708;2023-11-19T07:02:24;26.63;;;24.43;;
19830;SDS011;10076;52.008;4.708;2023-11-19T07:04:49;27.57;;;24.83;;
19830;SDS011;10076;52.008;4.708;2023-11-19T07:07:15;26.70;;;24.27;;
19830;SDS011;10076;52.008;4.708;2023-11-19T07:09:40;27.37;;;24.97;;
19830;SDS011;10076;52.008;4.708;2023-11-19T07:12:06;26.37;;;23.93;;
19830;SDS011;10076;52.008;4.708;2023-11-19T07:14:31;35.10;;;25.20;;
19830;SDS011;10076;52.008;4.708;2023-11-19T07:16:57;27.17;;;24.50;;
19830;SDS011;10076;52.008;4.708;2023-11-19T07:19:22;25.30;;;23.20;;
19830;SDS011;10076;52.008;4.708;2023-11-19T07:21:47;27.10;;;24.20;;
19830;SDS011;10076;52.008;4.708;2023-11-19T07:24:13;25.58;;;23.15;;
19830;SDS011;10076;52.008;4.708;2023-11-19T07:26:42;26.73;;;24.07;;
19830;SDS011;10076;52.008;4.708;2023-11-19T07:29:09;26.40;;;24.10;;
19830;SDS011;10076;52.008;4.708;2023-11-19T07:31:34;26.70;;;23.55;;
19830;SDS011;10076;52.008;4.708;2023-11-19T07:33:59;26.33;;;23.60;;
19830;SDS011;10076;52.008;4.708;2023-11-19T07:36:25;28.03;;;25.43;;
19830;SDS011;10076;52.008;4.708;2023-11-19T07:38:50;26.73;;;24.33;;
19830;SDS011;10076;52.008;4.708;2023-11-19T07:41:15;29.30;;;25.73;;
19830;SDS011;10076;52.008;4.708;2023-11-19T07:43:43;25.80;;;23.42;;
19830;SDS011;10076;52.008;4.708;2023-11-19T07:46:12;28.03;;;25.23;;
19830;SDS011;10076;52.008;4.708;2023-11-19T07:48:41;25.37;;;23.17;;
19830;SDS011;10076;52.008;4.708;2023-11-19T07:51:07;26.20;;;23.33;;
19830;SDS011;10076;52.008;4.708;2023-11-19T07:53:32;25.83;;;23.53;;
19830;SDS011;10076;52.008;4.708;2023-11-19T07:55:58;26.50;;;23.77;;
19830;SDS011;10076;52.008;4.708;2023-11-19T07:58:24;26.48;;;23.30;;
19830;SDS011;10076;52.008;4.708;2023-11-19T08:00:50;33.73;;;24.93;;
19830;SDS011;10076;52.008;4.708;2023-11-19T08:03:17;26.33;;;24.10;;
19830;SDS011;10076;52.008;4.708;2023-11-19T08:05:42;27.58;;;24.55;;
19830;SDS011;10076;52.008;4.708;2023-11-19T08:08:07;28.08;;;25.23;;
19830;SDS011;10076;52.008;4.708;2023-11-19T08:10:32;27.27;;;24.47;;
19830;SDS011;10076;52.008;4.708;2023-11-19T08:12:58;30.25;;;24.60;;
19830;SDS011;10076;52.008;4.708;2023-11-19T08:15:23;26.98;;;24.60;;
19830;SDS011;10076;52.008;4.708;2023-11-19T08:17:50;26.52;;;24.02;;
19830;SDS011;10076;52.008;4.708;2023-11-19T08:20:16;28.52;;;26.10;;
19830;SDS011;10076;52.008;4.708;2023-11-19T08:22:41;31.55;;;25.75;;
19830;SDS011;10076;52.008;4.708;2023-11-19T08:25:06;30.53;;;27.43;;
19830;SDS011;10076;52.008;4.708;2023-11-19T08:27:33;30.90;;;27.35;;
19830;SDS011;10076;52.008;4.708;2023-11-19T08:29:58;27.98;;;25.25;;
19830;SDS011;10076;52.008;4.708;2023-11-19T08:32:26;27.60;;;25.42;;
19830;SDS011;10076;52.008;4.708;2023-11-19T08:34:52;27.42;;;25.13;;
19830;SDS011;10076;52.008;4.708;2023-11-19T08:37:18;27.80;;;25.27;;
19830;SDS011;10076;52.008;4.708;2023-11-19T08:39:49;27.38;;;24.77;;
19830;SDS011;10076;52.008;4.708;2023-11-19T08:42:15;26.90;;;24.50;;
19830;SDS011;10076;52.008;4.708;2023-11-19T08:44:41;26.83;;;24.50;;
19830;SDS011;10076;52.008;4.708;2023-11-19T08:47:08;28.50;;;25.95;;
19830;SDS011;10076;52.008;4.708;2023-11-19T08:49:34;27.90;;;25.05;;
19830;SDS011;10076;52.008;4.708;2023-11-19T08:51:59;28.75;;;25.83;;
19830;SDS011;10076;52.008;4.708;2023-11-19T08:54:25;26.15;;;23.77;;
19830;SDS011;10076;52.008;4.708;2023-11-19T08:56:50;32.17;;;24.83;;
19830;SDS011;10076;52.008;4.708;2023-11-19T08:59:15;27.05;;;24.90;;
19830;SDS011;10076;52.008;4.708;2023-11-19T09:01:41;27.15;;;24.77;;
19830;SDS011;10076;52.008;4.708;2023-11-19T09:04:06;27.67;;;25.08;;
19830;SDS011;10076;52.008;4.708;2023-11-19T09:06:32;31.48;;;28.33;;
19830;SDS011;10076;52.008;4.708;2023-11-19T09:08:58;27.98;;;25.27;;
19830;SDS011;10076;52.008;4.708;2023-11-19T09:11:27;28.92;;;25.73;;
19830;SDS011;10076;52.008;4.708;2023-11-19T09:13:52;29.52;;;26.02;;
19830;SDS011;10076;52.008;4.708;2023-11-19T09:16:17;29.08;;;26.10;;
19830;SDS011;10076;52.008;4.708;2023-11-19T09:18:43;27.98;;;25.42;;
19830;SDS011;10076;52.008;4.708;2023-11-19T09:21:10;27.50;;;25.05;;
19830;SDS011;10076;52.008;4.708;2023-11-19T09:23:36;28.55;;;25.63;;
19830;SDS011;10076;52.008;4.708;2023-11-19T09:26:04;28.20;;;24.77;;
19830;SDS011;10076;52.008;4.708;2023-11-19T09:28:30;28.05;;;25.45;;
19830;SDS011;10076;52.008;4.708;2023-11-19T09:30:56;29.60;;;26.45;;
19830;SDS011;10076;52.008;4.708;2023-11-19T09:33:21;29.45;;;26.38;;
19830;SDS011;10076;52.008;4.708;2023-11-19T09:35:47;28.23;;;25.42;;
19830;SDS011;10076;52.008;4.708;2023-11-19T09:38:14;27.20;;;24.80;;
19830;SDS011;10076;52.008;4.708;2023-11-19T09:40:40;29.95;;;25.30;;
19830;SDS011;10076;52.008;4.708;2023-11-19T09:43:05;29.95;;;26.13;;
19830;SDS011;10076;52.008;4.708;2023-11-19T09:45:32;27.88;;;25.48;;
19830;SDS011;10076;52.008;4.708;2023-11-19T09:48:22;27.45;;;24.65;;
19830;SDS011;10076;52.008;4.708;2023-11-19T09:50:49;27.92;;;25.52;;
19830;SDS011;10076;52.008;4.708;2023-11-19T09:53:15;27.10;;;24.90;;
19830;SDS011;10076;52.008;4.708;2023-11-19T09:55:41;27.63;;;24.73;;
19830;SDS011;10076;52.008;4.708;2023-11-19T09:58:07;27.30;;;25.05;;
19830;SDS011;10076;52.008;4.708;2023-11-19T10:00:32;28.02;;;25.83;;
19830;SDS011;10076;52.008;4.708;2023-11-19T10:02:58;27.33;;;25.20;;
19830;SDS011;10076;52.008;4.708;2023-11-19T10:05:24;27.48;;;24.85;;
19830;SDS011;10076;52.008;4.708;2023-11-19T10:07:51;25.60;;;23.70;;
19830;SDS011;10076;52.008;4.708;2023-11-19T10:10:16;25.70;;;23.70;;
19830;SDS011;10076;52.008;4.708;2023-11-19T10:12:44;26.65;;;24.25;;
19830;SDS011;10076;52.008;4.708;2023-11-19T10:15:14;27.33;;;25.30;;
19830;SDS011;10076;52.008;4.708;2023-11-19T10:17:47;26.10;;;23.15;;
19830;SDS011;10076;52.008;4.708;2023-11-19T10:20:12;26.30;;;23.50;;
19830;SDS011;10076;52.008;4.708;2023-11-19T10:22:38;26.08;;;24.02;;
19830;SDS011;10076;52.008;4.708;2023-11-19T10:25:04;27.45;;;24.50;;
19830;SDS011;10076;52.008;4.708;2023-11-19T10:27:46;24.38;;;22.55;;
19830;SDS011;10076;52.008;4.708;2023-11-19T10:30:12;23.35;;;21.60;;
19830;SDS011;10076;52.008;4.708;2023-11-19T10:32:37;23.15;;;21.42;;
19830;SDS011;10076;52.008;4.708;2023-11-19T10:35:04;24.95;;;22.45;;
19830;SDS011;10076;52.008;4.708;2023-11-19T10:37:31;25.70;;;22.73;;
19830;SDS011;10076;52.008;4.708;2023-11-19T10:39:57;24.55;;;22.25;;
19830;SDS011;10076;52.008;4.708;2023-11-19T10:42:23;24.45;;;22.23;;
19830;SDS011;10076;52.008;4.708;2023-11-19T10:44:48;23.95;;;21.70;;
19830;SDS011;10076;52.008;4.708;2023-11-19T10:47:14;23.88;;;22.17;;
19830;SDS011;10076;52.008;4.708;2023-11-19T10:49:43;25.17;;;22.67;;
19830;SDS011;10076;52.008;4.708;2023-11-19T10:52:10;25.50;;;23.40;;
19830;SDS011;10076;52.008;4.708;2023-11-19T10:54:36;26.02;;;23.40;;
19830;SDS011;10076;52.008;4.708;2023-11-19T10:57:08;26.73;;;24.20;;
19830;SDS011;10076;52.008;4.708;2023-11-19T10:59:37;25.15;;;23.23;;
19830;SDS011;10076;52.008;4.708;2023-11-19T11:02:03;25.73;;;23.10;;
19830;SDS011;10076;52.008;4.708;2023-11-19T11:04:36;27.55;;;24.67;;
19830;SDS011;10076;52.008;4.708;2023-11-19T11:07:05;25.60;;;23.55;;
19830;SDS011;10076;52.008;4.708;2023-11-19T11:09:30;26.77;;;23.98;;
19830;SDS011;10076;52.008;4.708;2023-11-19T11:11:57;28.15;;;23.60;;
19830;SDS011;10076;52.008;4.708;2023-11-19T11:14:24;26.83;;;24.17;;
19830;SDS011;10076;52.008;4.708;2023-11-19T11:16:50;24.35;;;22.25;;
19830;SDS011;10076;52.008;4.708;2023-11-19T11:19:18;27.15;;;24.40;;
19830;SDS011;10076;52.008;4.708;2023-11-19T11:21:46;25.13;;;22.88;;
19830;SDS011;10076;52.008;4.708;2023-11-19T11:24:20;26.67;;;24.02;;
19830;SDS011;10076;52.008;4.708;2023-11-19T11:32:49;26.58;;;24.45;;
19830;SDS011;10076;52.008;4.708;2023-11-19T11:38:21;27.05;;;24.60;;
19830;SDS011;10076;52.008;4.708;2023-11-19T11:49:08;26.33;;;24.15;;
19830;SDS011;10076;52.008;4.708;2023-11-19T11:54:30;26.15;;;23.40;;
19830;SDS011;10076;52.008;4.708;2023-11-19T11:57:02;25.05;;;23.27;;
19830;SDS011;10076;52.008;4.708;2023-11-19T12:02:17;23.02;;;21.48;;
19830;SDS011;10076;52.008;4.708;2023-11-19T12:04:50;24.02;;;22.23;;
19830;SDS011;10076;52.008;4.708;2023-11-19T12:07:25;22.42;;;20.83;;
19830;SDS011;10076;52.008;4.708;2023-11-19T12:09:52;21.05;;;19.55;;
19830;SDS011;10076;52.008;4.708;2023-11-19T12:12:23;21.73;;;20.05;;
19830;SDS011;10076;52.008;4.708;2023-11-19T12:19:58;22.92;;;21.20;;
19830;SDS011;10076;52.008;4.708;2023-11-19T12:22:24;26.02;;;23.63;;
19830;SDS011;10076;52.008;4.708;2023-11-19T12:24:50;24.80;;;22.70;;
19830;SDS011;10076;52.008;4.708;2023-11-19T12:27:17;22.80;;;21.30;;
19830;SDS011;10076;52.008;4.708;2023-11-19T12:29:42;24.45;;;22.25;;
19830;SDS011;10076;52.008;4.708;2023-11-19T12:32:11;25.33;;;23.48;;
19830;SDS011;10076;52.008;4.708;2023-11-19T12:34:36;23.95;;;22.13;;
19830;SDS011;10076;52.008;4.708;2023-11-19T12:37:05;23.45;;;21.52;;
19830;SDS011;10076;52.008;4.708;2023-11-19T12:39:30;24.55;;;22.65;;
19830;SDS011;10076;52.008;4.708;2023-11-19T12:41:56;25.80;;;23.65;;
19830;SDS011;10076;52.008;4.708;2023-11-19T12:44:24;26.90;;;24.15;;
19830;SDS011;10076;52.008;4.708;2023-11-19T12:47:25;27.38;;;24.67;;
19830;SDS011;10076;52.008;4.708;2023-11-19T12:49:54;25.75;;;23.67;;
19830;SDS011;10076;52.008;4.708;2023-11-19T12:52:20;26.90;;;24.23;;
19830;SDS011;10076;52.008;4.708;2023-11-19T12:54:45;24.88;;;23.00;;
19830;SDS011;10076;52.008;4.708;2023-11-19T12:57:11;25.23;;;23.35;;
19830;SDS011;10076;52.008;4.708;2023-11-19T12:59:36;26.15;;;23.83;;
19830;SDS011;10076;52.008;4.708;2023-11-19T13:02:01;26.58;;;24.23;;
19830;SDS011;10076;52.008;4.708;2023-11-19T13:04:30;26.77;;;24.50;;
19830;SDS011;10076;52.008;4.708;2023-11-19T13:06:56;27.45;;;25.05;;
19830;SDS011;10076;52.008;4.708;2023-11-19T13:09:23;26.88;;;24.63;;
19830;SDS011;10076;52.008;4.708;2023-11-19T13:11:52;26.73;;;24.52;;
19830;SDS011;10076;52.008;4.708;2023-11-19T13:14:18;25.55;;;23.45;;
19830;SDS011;10076;52.008;4.708;2023-11-19T13:16:44;26.40;;;24.40;;
19830;SDS011;10076;52.008;4.708;2023-11-19T13:19:11;27.25;;;24.58;;
19830;SDS011;10076;52.008;4.708;2023-11-19T13:21:37;26.42;;;23.73;;
19830;SDS011;10076;52.008;4.708;2023-11-19T13:24:03;27.70;;;24.95;;
19830;SDS011;10076;52.008;4.708;2023-11-19T13:26:28;25.23;;;23.08;;
19830;SDS011;10076;52.008;4.708;2023-11-19T13:28:54;25.85;;;23.73;;
19830;SDS011;10076;52.008;4.708;2023-11-19T13:31:19;25.50;;;23.30;;
19830;SDS011;10076;52.008;4.708;2023-11-19T13:33:44;26.35;;;23.75;;
19830;SDS011;10076;52.008;4.708;2023-11-19T13:36:10;26.80;;;24.67;;
19830;SDS011;10076;52.008;4.708;2023-11-19T13:38:36;27.70;;;25.17;;
19830;SDS011;10076;52.008;4.708;2023-11-19T13:41:02;27.05;;;24.95;;
19830;SDS011;10076;52.008;4.708;2023-11-19T13:43:28;27.42;;;24.85;;
19830;SDS011;10076;52.008;4.708;2023-11-19T13:45:56;26.83;;;24.67;;
19830;SDS011;10076;52.008;4.708;2023-11-19T13:48:22;27.40;;;24.98;;
19830;SDS011;10076;52.008;4.708;2023-11-19T13:50:48;26.83;;;24.63;;
19830;SDS011;10076;52.008;4.708;2023-11-19T13:53:13;27.05;;;24.50;;
19830;SDS011;10076;52.008;4.708;2023-11-19T13:55:39;26.50;;;24.35;;
19830;SDS011;10076;52.008;4.708;2023-11-19T13:58:04;27.00;;;24.60;;
19830;SDS011;10076;52.008;4.708;2023-11-19T14:00:29;26.25;;;24.10;;
19830;SDS011;10076;52.008;4.708;2023-11-19T14:02:55;27.90;;;24.88;;
19830;SDS011;10076;52.008;4.708;2023-11-19T14:05:20;26.50;;;24.08;;
19830;SDS011;10076;52.008;4.708;2023-11-19T14:07:46;27.77;;;25.40;;
19830;SDS011;10076;52.008;4.708;2023-11-19T14:10:16;26.50;;;24.00;;
19830;SDS011;10076;52.008;4.708;2023-11-19T14:12:42;26.35;;;24.20;;
19830;SDS011;10076;52.008;4.708;2023-11-19T14:15:08;25.88;;;23.60;;
19830;SDS011;10076;52.008;4.708;2023-11-19T14:17:37;26.63;;;24.15;;
19830;SDS011;10076;52.008;4.708;2023-11-19T14:20:02;27.40;;;25.00;;
19830;SDS011;10076;52.008;4.708;2023-11-19T14:22:48;26.67;;;24.67;;
19830;SDS011;10076;52.008;4.708;2023-11-19T14:25:15;26.13;;;24.10;;
19830;SDS011;10076;52.008;4.708;2023-11-19T14:27:41;26.08;;;23.73;;
19830;SDS011;10076;52.008;4.708;2023-11-19T14:30:11;25.40;;;23.40;;
19830;SDS011;10076;52.008;4.708;2023-11-19T14:32:41;26.25;;;23.85;;
19830;SDS011;10076;52.008;4.708;2023-11-19T14:35:09;27.85;;;25.40;;
19830;SDS011;10076;52.008;4.708;2023-11-19T14:37:35;28.60;;;25.48;;
19830;SDS011;10076;52.008;4.708;2023-11-19T14:40:00;28.88;;;24.83;;
19830;SDS011;10076;52.008;4.708;2023-11-19T14:42:29;27.08;;;24.50;;
19830;SDS011;10076;52.008;4.708;2023-11-19T14:44:54;27.35;;;25.45;;